sensor_id;sensor_type;location;lat;lon;timestamp;P1;durP1;ratioP1;P2;durP2;ratioP2
1320;SDS011;653;51.480;11.992;2024-02-21T00:00:20;12.37;;;6.97;;
1320;SDS011;653;51.480;11.992;2024-02-21T00:02:47;11.43;;;7.50;;
1320;SDS011;653;51.480;11.992;2024-02-21T00:05:15;9.60;;;5.93;;
1320;SDS011;653;51.480;11.992;2024-02-21T00:07:41;11.20;;;6.63;;
1320;SDS011;653;51.480;11.992;2024-02-21T00:10:11;9.53;;;6.27;;
1320;SDS011;653;51.480;11.992;2024-02-21T00:12:39;9.53;;;6.40;;
1320;SDS011;653;51.480;11.992;2024-02-21T00:15:09;13.20;;;6.80;;
1320;SDS011;653;51.480;11.992;2024-02-21T00:17:37;12.03;;;6.10;;
1320;SDS011;653;51.480;11.992;2024-02-21T00:20:06;8.20;;;6.83;;
1320;SDS011;653;51.480;11.992;2024-02-21T00:22:32;14.80;;;8.50;;
1320;SDS011;653;51.480;11.992;2024-02-21T00:25:01;9.83;;;5.70;;
1320;SDS011;653;51.480;11.992;2024-02-21T00:27:27;8.70;;;7.67;;
1320;SDS011;653;51.480;11.992;2024-02-21T00:30:03;11.33;;;6.97;;
1320;SDS011;653;51.480;11.992;2024-02-21T00:32:31;10.10;;;7.37;;
1320;SDS011;653;51.480;11.992;2024-02-21T00:35:00;13.17;;;8.33;;
1320;SDS011;653;51.480;11.992;2024-02-21T00:37:27;8.07;;;7.27;;
1320;SDS011;653;51.480;11.992;2024-02-21T00:39:57;10.83;;;6.53;;
1320;SDS011;653;51.480;11.992;2024-02-21T00:42:26;11.33;;;6.47;;
1320;SDS011;653;51.480;11.992;2024-02-21T00:44:54;11.83;;;7.03;;
1320;SDS011;653;51.480;11.992;2024-02-21T00:47:24;10.03;;;7.07;;
1320;SDS011;653;51.480;11.992;2024-02-21T00:49:51;9.17;;;6.87;;
1320;SDS011;653;51.480;11.992;2024-02-21T00:52:19;14.63;;;6.50;;
1320;SDS011;653;51.480;11.992;2024-02-21T00:54:47;8.40;;;6.00;;
1320;SDS011;653;51.480;11.992;2024-02-21T00:57:16;12.50;;;6.87;;
1320;SDS011;653;51.480;11.992;2024-02-21T00:59:42;10.40;;;6.70;;
1320;SDS011;653;51.480;11.992;2024-02-21T01:02:11;12.93;;;7.20;;
1320;SDS011;653;51.480;11.992;2024-02-21T01:04:39;8.93;;;6.80;;
1320;SDS011;653;51.480;11.992;2024-02-21T01:07:06;20.30;;;6.90;;
1320;SDS011;653;51.480;11.992;2024-02-21T01:09:33;22.30;;;8.33;;
1320;SDS011;653;51.480;11.992;2024-02-21T01:12:00;12.60;;;6.90;;
1320;SDS011;653;51.480;11.992;2024-02-21T01:14:28;9.97;;;7.10;;
1320;SDS011;653;51.480;11.992;2024-02-21T01:16:56;10.87;;;6.77;;
1320;SDS011;653;51.480;11.992;2024-02-21T01:19:24;13.63;;;7.63;;
1320;SDS011;653;51.480;11.992;2024-02-21T01:21:53;16.43;;;8.23;;
1320;SDS011;653;51.480;11.992;2024-02-21T01:24:22;9.53;;;6.90;;
1320;SDS011;653;51.480;11.992;2024-02-21T01:26:50;7.97;;;6.30;;
1320;SDS011;653;51.480;11.992;2024-02-21T01:29:18;8.80;;;6.40;;
1320;SDS011;653;51.480;11.992;2024-02-21T01:31:45;10.37;;;7.00;;
1320;SDS011;653;51.480;11.992;2024-02-21T01:34:13;13.67;;;7.90;;
1320;SDS011;653;51.480;11.992;2024-02-21T01:36:40;8.30;;;6.50;;
1320;SDS011;653;51.480;11.992;2024-02-21T01:39:10;11.87;;;7.80;;
1320;SDS011;653;51.480;11.992;2024-02-21T01:41:36;9.43;;;8.30;;
1320;SDS011;653;51.480;11.992;2024-02-21T01:44:04;12.30;;;7.03;;
1320;SDS011;653;51.480;11.992;2024-02-21T01:46:34;10.90;;;6.10;;
1320;SDS011;653;51.480;11.992;2024-02-21T01:49:02;12.73;;;7.00;;
1320;SDS011;653;51.480;11.992;2024-02-21T01:51:31;13.07;;;6.27;;
1320;SDS011;653;51.480;11.992;2024-02-21T01:53:59;12.67;;;6.97;;
1320;SDS011;653;51.480;11.992;2024-02-21T01:56:26;10.23;;;6.93;;
1320;SDS011;653;51.480;11.992;2024-02-21T01:58:55;12.43;;;6.93;;
1320;SDS011;653;51.480;11.992;2024-02-21T02:01:23;13.00;;;8.07;;
1320;SDS011;653;51.480;11.992;2024-02-21T02:03:51;11.80;;;6.30;;
1320;SDS011;653;51.480;11.992;2024-02-21T02:06:19;14.80;;;6.30;;
1320;SDS011;653;51.480;11.992;2024-02-21T02:08:46;12.37;;;6.47;;
1320;SDS011;653;51.480;11.992;2024-02-21T02:11:14;15.67;;;7.57;;
1320;SDS011;653;51.480;11.992;2024-02-21T02:13:46;20.73;;;7.27;;
1320;SDS011;653;51.480;11.992;2024-02-21T02:16:14;16.87;;;6.90;;
1320;SDS011;653;51.480;11.992;2024-02-21T02:18:40;10.90;;;7.17;;
1320;SDS011;653;51.480;11.992;2024-02-21T02:21:10;15.03;;;6.73;;
1320;SDS011;653;51.480;11.992;2024-02-21T02:23:38;15.70;;;6.87;;
1320;SDS011;653;51.480;11.992;2024-02-21T02:26:06;10.43;;;6.30;;
1320;SDS011;653;51.480;11.992;2024-02-21T02:28:32;12.20;;;7.00;;
1320;SDS011;653;51.480;11.992;2024-02-21T02:31:05;14.40;;;7.00;;
1320;SDS011;653;51.480;11.992;2024-02-21T02:33:33;10.30;;;6.70;;
1320;SDS011;653;51.480;11.992;2024-02-21T02:36:01;9.20;;;7.07;;
1320;SDS011;653;51.480;11.992;2024-02-21T02:38:28;14.10;;;6.57;;
1320;SDS011;653;51.480;11.992;2024-02-21T02:40:58;12.60;;;6.50;;
1320;SDS011;653;51.480;11.992;2024-02-21T02:43:25;11.93;;;6.73;;
1320;SDS011;653;51.480;11.992;2024-02-21T02:45:52;11.00;;;6.30;;
1320;SDS011;653;51.480;11.992;2024-02-21T02:48:19;12.60;;;6.20;;
1320;SDS011;653;51.480;11.992;2024-02-21T02:50:49;11.53;;;7.03;;
1320;SDS011;653;51.480;11.992;2024-02-21T02:53:15;14.33;;;8.50;;
1320;SDS011;653;51.480;11.992;2024-02-21T02:55:42;12.07;;;6.90;;
1320;SDS011;653;51.480;11.992;2024-02-21T02:58:11;15.20;;;8.57;;
1320;SDS011;653;51.480;11.992;2024-02-21T03:00:37;18.13;;;7.87;;
1320;SDS011;653;51.480;11.992;2024-02-21T03:03:05;15.57;;;7.60;;
1320;SDS011;653;51.480;11.992;2024-02-21T03:05:35;9.63;;;6.80;;
1320;SDS011;653;51.480;11.992;2024-02-21T03:08:02;14.23;;;7.00;;
1320;SDS011;653;51.480;11.992;2024-02-21T03:10:33;11.13;;;7.63;;
1320;SDS011;653;51.480;11.992;2024-02-21T03:13:01;17.10;;;7.83;;
1320;SDS011;653;51.480;11.992;2024-02-21T03:15:31;13.30;;;6.67;;
1320;SDS011;653;51.480;11.992;2024-02-21T03:17:59;12.30;;;7.03;;
1320;SDS011;653;51.480;11.992;2024-02-21T03:20:26;7.83;;;5.93;;
1320;SDS011;653;51.480;11.992;2024-02-21T03:22:54;12.67;;;8.47;;
1320;SDS011;653;51.480;11.992;2024-02-21T03:25:24;10.20;;;6.13;;
1320;SDS011;653;51.480;11.992;2024-02-21T03:27:51;10.63;;;6.37;;
1320;SDS011;653;51.480;11.992;2024-02-21T03:30:18;9.87;;;7.20;;
1320;SDS011;653;51.480;11.992;2024-02-21T03:32:47;14.97;;;7.07;;
1320;SDS011;653;51.480;11.992;2024-02-21T03:35:15;9.10;;;5.83;;
1320;SDS011;653;51.480;11.992;2024-02-21T03:37:41;12.33;;;6.43;;
1320;SDS011;653;51.480;11.992;2024-02-21T03:40:09;10.67;;;7.63;;
1320;SDS011;653;51.480;11.992;2024-02-21T03:42:38;14.17;;;7.43;;
1320;SDS011;653;51.480;11.992;2024-02-21T03:45:06;9.57;;;7.37;;
1320;SDS011;653;51.480;11.992;2024-02-21T03:47:34;11.40;;;7.33;;
1320;SDS011;653;51.480;11.992;2024-02-21T03:50:04;13.80;;;6.90;;
1320;SDS011;653;51.480;11.992;2024-02-21T03:52:31;10.00;;;7.90;;
1320;SDS011;653;51.480;11.992;2024-02-21T03:54:59;17.70;;;8.50;;
1320;SDS011;653;51.480;11.992;2024-02-21T03:57:26;12.63;;;6.80;;
1320;SDS011;653;51.480;11.992;2024-02-21T03:59:55;8.93;;;6.50;;
1320;SDS011;653;51.480;11.992;2024-02-21T04:02:21;12.23;;;8.37;;
1320;SDS011;653;51.480;11.992;2024-02-21T04:04:49;13.17;;;7.20;;
1320;SDS011;653;51.480;11.992;2024-02-21T04:07:18;10.20;;;6.60;;
1320;SDS011;653;51.480;11.992;2024-02-21T04:09:47;16.93;;;7.63;;
1320;SDS011;653;51.480;11.992;2024-02-21T04:12:15;19.53;;;8.40;;
1320;SDS011;653;51.480;11.992;2024-02-21T04:14:41;9.90;;;7.40;;
1320;SDS011;653;51.480;11.992;2024-02-21T04:17:09;14.43;;;8.50;;
1320;SDS011;653;51.480;11.992;2024-02-21T04:19:35;11.70;;;7.40;;
1320;SDS011;653;51.480;11.992;2024-02-21T04:22:03;13.53;;;7.77;;
1320;SDS011;653;51.480;11.992;2024-02-21T04:24:32;14.03;;;7.10;;
1320;SDS011;653;51.480;11.992;2024-02-21T04:26:59;13.50;;;7.60;;
1320;SDS011;653;51.480;11.992;2024-02-21T04:29:26;16.27;;;8.40;;
1320;SDS011;653;51.480;11.992;2024-02-21T04:31:54;13.03;;;7.70;;
1320;SDS011;653;51.480;11.992;2024-02-21T04:34:23;14.10;;;8.03;;
1320;SDS011;653;51.480;11.992;2024-02-21T04:36:50;14.63;;;7.67;;
1320;SDS011;653;51.480;11.992;2024-02-21T04:39:18;10.23;;;7.70;;
1320;SDS011;653;51.480;11.992;2024-02-21T04:41:47;13.60;;;7.83;;
1320;SDS011;653;51.480;11.992;2024-02-21T04:44:14;11.40;;;7.20;;
1320;SDS011;653;51.480;11.992;2024-02-21T04:46:42;12.17;;;6.77;;
1320;SDS011;653;51.480;11.992;2024-02-21T04:49:09;10.50;;;7.50;;
1320;SDS011;653;51.480;11.992;2024-02-21T04:51:36;13.90;;;8.10;;
1320;SDS011;653;51.480;11.992;2024-02-21T04:54:03;14.13;;;7.87;;
1320;SDS011;653;51.480;11.992;2024-02-21T04:56:34;13.63;;;8.90;;
1320;SDS011;653;51.480;11.992;2024-02-21T04:59:03;16.10;;;8.30;;
1320;SDS011;653;51.480;11.992;2024-02-21T05:01:30;10.43;;;8.03;;
1320;SDS011;653;51.480;11.992;2024-02-21T05:03:58;12.80;;;7.50;;
1320;SDS011;653;51.480;11.992;2024-02-21T05:06:27;11.57;;;7.30;;
1320;SDS011;653;51.480;11.992;2024-02-21T05:08:55;13.40;;;8.90;;
1320;SDS011;653;51.480;11.992;2024-02-21T05:11:24;19.07;;;8.97;;
1320;SDS011;653;51.480;11.992;2024-02-21T05:13:52;16.67;;;8.37;;
1320;SDS011;653;51.480;11.992;2024-02-21T05:16:21;13.37;;;9.40;;
1320;SDS011;653;51.480;11.992;2024-02-21T05:18:48;14.93;;;9.00;;
1320;SDS011;653;51.480;11.992;2024-02-21T05:21:15;12.63;;;8.37;;
1320;SDS011;653;51.480;11.992;2024-02-21T05:23:41;17.80;;;8.57;;
1320;SDS011;653;51.480;11.992;2024-02-21T05:26:09;18.27;;;9.63;;
1320;SDS011;653;51.480;11.992;2024-02-21T05:28:35;14.57;;;9.50;;
1320;SDS011;653;51.480;11.992;2024-02-21T05:31:03;14.57;;;10.13;;
1320;SDS011;653;51.480;11.992;2024-02-21T05:33:33;16.93;;;8.80;;
1320;SDS011;653;51.480;11.992;2024-02-21T05:36:01;17.30;;;10.30;;
1320;SDS011;653;51.480;11.992;2024-02-21T05:38:27;15.90;;;10.40;;
1320;SDS011;653;51.480;11.992;2024-02-21T05:40:55;16.57;;;9.40;;
1320;SDS011;653;51.480;11.992;2024-02-21T05:43:23;12.47;;;9.80;;
1320;SDS011;653;51.480;11.992;2024-02-21T05:45:50;21.20;;;11.90;;
1320;SDS011;653;51.480;11.992;2024-02-21T05:48:19;17.27;;;9.97;;
1320;SDS011;653;51.480;11.992;2024-02-21T05:50:50;15.83;;;9.30;;
1320;SDS011;653;51.480;11.992;2024-02-21T05:53:17;18.30;;;10.70;;
1320;SDS011;653;51.480;11.992;2024-02-21T05:55:45;13.90;;;10.93;;
1320;SDS011;653;51.480;11.992;2024-02-21T05:58:12;18.13;;;10.23;;
1320;SDS011;653;51.480;11.992;2024-02-21T06:00:39;12.90;;;10.70;;
1320;SDS011;653;51.480;11.992;2024-02-21T06:03:07;16.43;;;10.23;;
1320;SDS011;653;51.480;11.992;2024-02-21T06:05:36;16.80;;;10.10;;
1320;SDS011;653;51.480;11.992;2024-02-21T06:08:08;14.20;;;10.00;;
1320;SDS011;653;51.480;11.992;2024-02-21T06:10:34;18.40;;;9.77;;
1320;SDS011;653;51.480;11.992;2024-02-21T06:13:02;16.37;;;9.80;;
1320;SDS011;653;51.480;11.992;2024-02-21T06:15:30;14.83;;;8.83;;
1320;SDS011;653;51.480;11.992;2024-02-21T06:17:57;21.23;;;10.50;;
1320;SDS011;653;51.480;11.992;2024-02-21T06:20:25;16.63;;;11.57;;
1320;SDS011;653;51.480;11.992;2024-02-21T06:22:52;18.37;;;10.80;;
1320;SDS011;653;51.480;11.992;2024-02-21T06:25:20;18.23;;;9.90;;
1320;SDS011;653;51.480;11.992;2024-02-21T06:27:47;13.50;;;10.27;;
1320;SDS011;653;51.480;11.992;2024-02-21T06:30:16;19.33;;;11.07;;
1320;SDS011;653;51.480;11.992;2024-02-21T06:32:44;20.70;;;10.03;;
1320;SDS011;653;51.480;11.992;2024-02-21T06:35:13;13.17;;;9.40;;
1320;SDS011;653;51.480;11.992;2024-02-21T06:37:40;12.97;;;8.67;;
1320;SDS011;653;51.480;11.992;2024-02-21T06:40:07;12.93;;;9.13;;
1320;SDS011;653;51.480;11.992;2024-02-21T06:42:35;17.77;;;11.40;;
1320;SDS011;653;51.480;11.992;2024-02-21T06:45:02;18.20;;;10.10;;
1320;SDS011;653;51.480;11.992;2024-02-21T06:47:33;17.67;;;11.20;;
1320;SDS011;653;51.480;11.992;2024-02-21T06:50:00;10.17;;;9.10;;
1320;SDS011;653;51.480;11.992;2024-02-21T06:52:28;13.20;;;9.53;;
1320;SDS011;653;51.480;11.992;2024-02-21T06:54:56;14.13;;;9.67;;
1320;SDS011;653;51.480;11.992;2024-02-21T06:57:23;17.30;;;10.57;;
1320;SDS011;653;51.480;11.992;2024-02-21T06:59:52;24.77;;;9.90;;
1320;SDS011;653;51.480;11.992;2024-02-21T07:02:20;14.20;;;8.63;;
1320;SDS011;653;51.480;11.992;2024-02-21T07:04:50;9.23;;;8.20;;
1320;SDS011;653;51.480;11.992;2024-02-21T07:07:21;16.27;;;9.73;;
1320;SDS011;653;51.480;11.992;2024-02-21T07:09:47;12.83;;;8.87;;
1320;SDS011;653;51.480;11.992;2024-02-21T07:12:15;14.50;;;8.23;;
1320;SDS011;653;51.480;11.992;2024-02-21T07:14:41;12.90;;;10.30;;
1320;SDS011;653;51.480;11.992;2024-02-21T07:17:10;12.50;;;9.93;;
1320;SDS011;653;51.480;11.992;2024-02-21T07:19:41;13.83;;;10.87;;
1320;SDS011;653;51.480;11.992;2024-02-21T07:22:11;11.87;;;9.30;;
1320;SDS011;653;51.480;11.992;2024-02-21T07:24:40;11.63;;;7.00;;
1320;SDS011;653;51.480;11.992;2024-02-21T07:27:09;11.87;;;9.70;;
1320;SDS011;653;51.480;11.992;2024-02-21T07:29:36;13.07;;;9.33;;
1320;SDS011;653;51.480;11.992;2024-02-21T07:32:04;15.23;;;10.83;;
1320;SDS011;653;51.480;11.992;2024-02-21T07:34:33;13.70;;;10.20;;
1320;SDS011;653;51.480;11.992;2024-02-21T07:37:00;14.03;;;8.70;;
1320;SDS011;653;51.480;11.992;2024-02-21T07:39:28;15.43;;;9.80;;
1320;SDS011;653;51.480;11.992;2024-02-21T07:41:55;15.60;;;8.47;;
1320;SDS011;653;51.480;11.992;2024-02-21T07:44:21;10.93;;;9.77;;
1320;SDS011;653;51.480;11.992;2024-02-21T07:46:48;12.57;;;10.03;;
1320;SDS011;653;51.480;11.992;2024-02-21T07:49:15;13.27;;;10.20;;
1320;SDS011;653;51.480;11.992;2024-02-21T07:51:43;16.00;;;10.00;;
1320;SDS011;653;51.480;11.992;2024-02-21T07:54:13;14.53;;;9.90;;
1320;SDS011;653;51.480;11.992;2024-02-21T07:56:41;10.43;;;9.33;;
1320;SDS011;653;51.480;11.992;2024-02-21T07:59:08;13.57;;;10.00;;
1320;SDS011;653;51.480;11.992;2024-02-21T08:01:38;11.33;;;8.50;;
1320;SDS011;653;51.480;11.992;2024-02-21T08:04:11;13.60;;;8.60;;
1320;SDS011;653;51.480;11.992;2024-02-21T08:06:38;11.60;;;9.47;;
1320;SDS011;653;51.480;11.992;2024-02-21T08:09:13;18.20;;;10.50;;
1320;SDS011;653;51.480;11.992;2024-02-21T08:11:41;15.30;;;10.17;;
1320;SDS011;653;51.480;11.992;2024-02-21T08:14:07;13.83;;;9.90;;
1320;SDS011;653;51.480;11.992;2024-02-21T08:16:34;17.37;;;11.20;;
1320;SDS011;653;51.480;11.992;2024-02-21T08:19:01;14.77;;;11.40;;
1320;SDS011;653;51.480;11.992;2024-02-21T08:21:30;17.17;;;10.40;;
1320;SDS011;653;51.480;11.992;2024-02-21T08:23:58;11.63;;;8.63;;
1320;SDS011;653;51.480;11.992;2024-02-21T08:26:26;14.33;;;10.27;;
1320;SDS011;653;51.480;11.992;2024-02-21T08:28:58;12.00;;;8.93;;
1320;SDS011;653;51.480;11.992;2024-02-21T08:31:25;19.43;;;10.17;;
1320;SDS011;653;51.480;11.992;2024-02-21T08:33:56;12.67;;;10.37;;
1320;SDS011;653;51.480;11.992;2024-02-21T08:36:28;16.53;;;9.90;;
1320;SDS011;653;51.480;11.992;2024-02-21T08:38:55;11.97;;;9.90;;
1320;SDS011;653;51.480;11.992;2024-02-21T08:41:26;19.90;;;11.30;;
1320;SDS011;653;51.480;11.992;2024-02-21T08:43:53;13.00;;;7.70;;
1320;SDS011;653;51.480;11.992;2024-02-21T08:46:22;15.03;;;9.23;;
1320;SDS011;653;51.480;11.992;2024-02-21T08:48:49;12.63;;;8.57;;
1320;SDS011;653;51.480;11.992;2024-02-21T08:51:17;12.50;;;9.60;;
1320;SDS011;653;51.480;11.992;2024-02-21T08:53:45;14.80;;;9.60;;
1320;SDS011;653;51.480;11.992;2024-02-21T08:56:12;11.60;;;8.50;;
1320;SDS011;653;51.480;11.992;2024-02-21T08:58:41;13.57;;;9.40;;
1320;SDS011;653;51.480;11.992;2024-02-21T09:01:08;21.10;;;10.10;;
1320;SDS011;653;51.480;11.992;2024-02-21T09:03:35;17.93;;;9.10;;
1320;SDS011;653;51.480;11.992;2024-02-21T09:06:04;12.47;;;9.07;;
1320;SDS011;653;51.480;11.992;2024-02-21T09:08:31;13.40;;;9.37;;
1320;SDS011;653;51.480;11.992;2024-02-21T09:11:00;7.80;;;6.80;;
1320;SDS011;653;51.480;11.992;2024-02-21T09:13:27;12.80;;;8.77;;
1320;SDS011;653;51.480;11.992;2024-02-21T09:16:00;16.33;;;8.97;;
1320;SDS011;653;51.480;11.992;2024-02-21T09:18:28;11.93;;;8.67;;
1320;SDS011;653;51.480;11.992;2024-02-21T09:20:56;14.10;;;8.80;;
1320;SDS011;653;51.480;11.992;2024-02-21T09:23:25;10.60;;;8.10;;
1320;SDS011;653;51.480;11.992;2024-02-21T09:25:53;14.30;;;9.07;;
1320;SDS011;653;51.480;11.992;2024-02-21T09:28:22;16.13;;;10.00;;
1320;SDS011;653;51.480;11.992;2024-02-21T09:30:48;18.50;;;10.50;;
1320;SDS011;653;51.480;11.992;2024-02-21T09:33:19;11.97;;;8.63;;
1320;SDS011;653;51.480;11.992;2024-02-21T09:35:47;13.67;;;8.90;;
1320;SDS011;653;51.480;11.992;2024-02-21T09:38:15;12.27;;;7.30;;
1320;SDS011;653;51.480;11.992;2024-02-21T09:40:41;11.00;;;7.40;;
1320;SDS011;653;51.480;11.992;2024-02-21T09:43:11;14.83;;;7.20;;
1320;SDS011;653;51.480;11.992;2024-02-21T09:45:41;9.47;;;8.30;;
1320;SDS011;653;51.480;11.992;2024-02-21T09:48:22;8.60;;;7.60;;
1320;SDS011;653;51.480;11.992;2024-02-21T09:50:51;10.27;;;6.57;;
1320;SDS011;653;51.480;11.992;2024-02-21T09:53:34;9.37;;;7.97;;
1320;SDS011;653;51.480;11.992;2024-02-21T09:56:03;8.60;;;7.13;;
1320;SDS011;653;51.480;11.992;2024-02-21T09:58:32;9.10;;;7.60;;
1320;SDS011;653;51.480;11.992;2024-02-21T10:01:00;10.40;;;7.37;;
1320;SDS011;653;51.480;11.992;2024-02-21T10:03:30;10.00;;;8.27;;
1320;SDS011;653;51.480;11.992;2024-02-21T10:05:59;9.27;;;8.17;;
1320;SDS011;653;51.480;11.992;2024-02-21T10:08:27;12.83;;;7.77;;
1320;SDS011;653;51.480;11.992;2024-02-21T10:10:55;7.90;;;6.80;;
1320;SDS011;653;51.480;11.992;2024-02-21T10:13:26;11.87;;;7.80;;
1320;SDS011;653;51.480;11.992;2024-02-21T10:16:06;12.83;;;7.70;;
1320;SDS011;653;51.480;11.992;2024-02-21T10:18:34;8.10;;;6.80;;
1320;SDS011;653;51.480;11.992;2024-02-21T10:21:02;9.90;;;7.77;;
1320;SDS011;653;51.480;11.992;2024-02-21T10:26:12;14.13;;;8.27;;
1320;SDS011;653;51.480;11.992;2024-02-21T10:28:54;12.60;;;6.87;;
1320;SDS011;653;51.480;11.992;2024-02-21T10:31:25;9.70;;;6.90;;
1320;SDS011;653;51.480;11.992;2024-02-21T10:34:04;9.63;;;8.10;;
1320;SDS011;653;51.480;11.992;2024-02-21T10:36:32;15.10;;;7.70;;
1320;SDS011;653;51.480;11.992;2024-02-21T10:39:00;16.50;;;9.17;;
1320;SDS011;653;51.480;11.992;2024-02-21T10:41:28;8.80;;;7.00;;
1320;SDS011;653;51.480;11.992;2024-02-21T10:43:56;14.50;;;7.37;;
1320;SDS011;653;51.480;11.992;2024-02-21T10:46:26;7.60;;;6.70;;
1320;SDS011;653;51.480;11.992;2024-02-21T10:48:59;10.43;;;7.10;;
1320;SDS011;653;51.480;11.992;2024-02-21T10:51:31;10.00;;;6.90;;
1320;SDS011;653;51.480;11.992;2024-02-21T10:54:03;8.77;;;6.80;;
1320;SDS011;653;51.480;11.992;2024-02-21T10:56:35;10.47;;;7.07;;
1320;SDS011;653;51.480;11.992;2024-02-21T10:59:07;12.60;;;8.00;;
1320;SDS011;653;51.480;11.992;2024-02-21T11:01:35;10.40;;;7.20;;
1320;SDS011;653;51.480;11.992;2024-02-21T11:04:02;6.67;;;6.07;;
1320;SDS011;653;51.480;11.992;2024-02-21T11:06:33;8.73;;;6.20;;
1320;SDS011;653;51.480;11.992;2024-02-21T11:09:01;7.60;;;6.50;;
1320;SDS011;653;51.480;11.992;2024-02-21T11:11:33;9.07;;;6.00;;
1320;SDS011;653;51.480;11.992;2024-02-21T11:14:07;9.93;;;6.10;;
1320;SDS011;653;51.480;11.992;2024-02-21T11:16:37;6.60;;;5.70;;
1320;SDS011;653;51.480;11.992;2024-02-21T11:19:09;7.73;;;5.97;;
1320;SDS011;653;51.480;11.992;2024-02-21T11:21:38;5.77;;;5.07;;
1320;SDS011;653;51.480;11.992;2024-02-21T11:24:07;5.73;;;5.23;;
1320;SDS011;653;51.480;11.992;2024-02-21T11:26:36;6.20;;;5.17;;
1320;SDS011;653;51.480;11.992;2024-02-21T11:29:04;6.33;;;5.30;;
1320;SDS011;653;51.480;11.992;2024-02-21T11:31:40;8.60;;;5.83;;
1320;SDS011;653;51.480;11.992;2024-02-21T11:34:12;6.80;;;6.27;;
1320;SDS011;653;51.480;11.992;2024-02-21T11:36:49;5.90;;;5.30;;
1320;SDS011;653;51.480;11.992;2024-02-21T11:39:21;6.37;;;5.77;;
1320;SDS011;653;51.480;11.992;2024-02-21T11:44:31;8.57;;;6.07;;
1320;SDS011;653;51.480;11.992;2024-02-21T11:46:59;7.13;;;6.00;;
1320;SDS011;653;51.480;11.992;2024-02-21T11:49:27;7.57;;;6.87;;
1320;SDS011;653;51.480;11.992;2024-02-21T11:52:00;8.27;;;7.57;;
1320;SDS011;653;51.480;11.992;2024-02-21T11:54:30;8.37;;;6.77;;
1320;SDS011;653;51.480;11.992;2024-02-21T11:56:58;7.83;;;7.10;;
1320;SDS011;653;51.480;11.992;2024-02-21T11:59:26;11.13;;;6.70;;
1320;SDS011;653;51.480;11.992;2024-02-21T12:01:54;7.97;;;6.73;;
1320;SDS011;653;51.480;11.992;2024-02-21T12:04:23;7.97;;;7.07;;
1320;SDS011;653;51.480;11.992;2024-02-21T12:06:55;7.77;;;6.37;;
1320;SDS011;653;51.480;11.992;2024-02-21T12:09:24;7.43;;;6.27;;
1320;SDS011;653;51.480;11.992;2024-02-21T12:14:35;17.20;;;7.53;;
1320;SDS011;653;51.480;11.992;2024-02-21T12:17:02;12.13;;;7.57;;
1320;SDS011;653;51.480;11.992;2024-02-21T12:19:32;7.50;;;6.80;;
1320;SDS011;653;51.480;11.992;2024-02-21T12:22:00;8.37;;;7.47;;
1320;SDS011;653;51.480;11.992;2024-02-21T12:24:33;8.30;;;6.80;;
1320;SDS011;653;51.480;11.992;2024-02-21T12:27:02;9.73;;;7.30;;
1320;SDS011;653;51.480;11.992;2024-02-21T12:29:30;8.57;;;7.67;;
1320;SDS011;653;51.480;11.992;2024-02-21T12:31:58;7.97;;;6.50;;
1320;SDS011;653;51.480;11.992;2024-02-21T12:34:26;9.70;;;7.80;;
1320;SDS011;653;51.480;11.992;2024-02-21T12:36:54;7.53;;;6.63;;
1320;SDS011;653;51.480;11.992;2024-02-21T12:39:22;6.43;;;5.93;;
1320;SDS011;653;51.480;11.992;2024-02-21T12:41:50;6.93;;;6.23;;
1320;SDS011;653;51.480;11.992;2024-02-21T12:44:18;10.20;;;6.90;;
1320;SDS011;653;51.480;11.992;2024-02-21T12:46:46;6.93;;;6.33;;
1320;SDS011;653;51.480;11.992;2024-02-21T12:49:16;8.43;;;7.13;;
1320;SDS011;653;51.480;11.992;2024-02-21T12:51:43;7.47;;;6.67;;
1320;SDS011;653;51.480;11.992;2024-02-21T12:54:13;14.03;;;8.60;;
1320;SDS011;653;51.480;11.992;2024-02-21T12:56:41;7.20;;;6.50;;
1320;SDS011;653;51.480;11.992;2024-02-21T12:59:11;9.13;;;8.23;;
1320;SDS011;653;51.480;11.992;2024-02-21T13:01:45;8.17;;;7.37;;
1320;SDS011;653;51.480;11.992;2024-02-21T13:04:14;8.03;;;6.90;;
1320;SDS011;653;51.480;11.992;2024-02-21T13:06:43;7.97;;;6.80;;
1320;SDS011;653;51.480;11.992;2024-02-21T13:09:15;8.40;;;7.50;;
1320;SDS011;653;51.480;11.992;2024-02-21T13:11:47;11.67;;;8.20;;
1320;SDS011;653;51.480;11.992;2024-02-21T13:14:38;10.17;;;6.73;;
1320;SDS011;653;51.480;11.992;2024-02-21T13:17:08;13.13;;;8.40;;
1320;SDS011;653;51.480;11.992;2024-02-21T13:19:51;8.37;;;7.50;;
1320;SDS011;653;51.480;11.992;2024-02-21T13:22:27;10.20;;;7.80;;
1320;SDS011;653;51.480;11.992;2024-02-21T13:25:08;6.83;;;6.20;;
1320;SDS011;653;51.480;11.992;2024-02-21T13:27:35;7.80;;;7.00;;
1320;SDS011;653;51.480;11.992;2024-02-21T13:30:06;11.90;;;7.90;;
1320;SDS011;653;51.480;11.992;2024-02-21T13:32:43;7.93;;;7.00;;
1320;SDS011;653;51.480;11.992;2024-02-21T13:35:16;7.47;;;6.70;;
1320;SDS011;653;51.480;11.992;2024-02-21T13:37:49;9.43;;;6.60;;
1320;SDS011;653;51.480;11.992;2024-02-21T13:40:16;10.23;;;6.77;;
1320;SDS011;653;51.480;11.992;2024-02-21T13:43:02;7.80;;;7.10;;
1320;SDS011;653;51.480;11.992;2024-02-21T13:45:33;6.83;;;6.30;;
1320;SDS011;653;51.480;11.992;2024-02-21T13:48:03;10.43;;;6.50;;
1320;SDS011;653;51.480;11.992;2024-02-21T13:50:37;8.70;;;6.70;;
1320;SDS011;653;51.480;11.992;2024-02-21T13:53:09;11.57;;;7.13;;
1320;SDS011;653;51.480;11.992;2024-02-21T13:55:36;10.30;;;6.90;;
1320;SDS011;653;51.480;11.992;2024-02-21T13:58:09;13.27;;;6.70;;
1320;SDS011;653;51.480;11.992;2024-02-21T14:00:42;12.37;;;6.87;;
1320;SDS011;653;51.480;11.992;2024-02-21T14:03:17;8.27;;;7.57;;
1320;SDS011;653;51.480;11.992;2024-02-21T14:05:52;8.10;;;6.50;;
1320;SDS011;653;51.480;11.992;2024-02-21T14:08:19;9.93;;;7.17;;
1320;SDS011;653;51.480;11.992;2024-02-21T14:10:47;7.67;;;6.80;;
1320;SDS011;653;51.480;11.992;2024-02-21T14:13:15;8.37;;;7.57;;
1320;SDS011;653;51.480;11.992;2024-02-21T14:15:44;10.43;;;8.50;;
1320;SDS011;653;51.480;11.992;2024-02-21T14:18:16;9.30;;;8.27;;
1320;SDS011;653;51.480;11.992;2024-02-21T14:20:42;11.00;;;8.00;;
1320;SDS011;653;51.480;11.992;2024-02-21T14:23:09;9.30;;;8.27;;
1320;SDS011;653;51.480;11.992;2024-02-21T14:25:37;12.20;;;8.20;;
1320;SDS011;653;51.480;11.992;2024-02-21T14:28:05;7.77;;;7.00;;
1320;SDS011;653;51.480;11.992;2024-02-21T14:30:34;10.40;;;8.20;;
1320;SDS011;653;51.480;11.992;2024-02-21T14:33:03;9.33;;;7.77;;
1320;SDS011;653;51.480;11.992;2024-02-21T14:35:34;9.67;;;7.33;;
1320;SDS011;653;51.480;11.992;2024-02-21T14:38:01;17.00;;;10.10;;
1320;SDS011;653;51.480;11.992;2024-02-21T14:40:27;10.07;;;8.20;;
1320;SDS011;653;51.480;11.992;2024-02-21T14:42:56;12.47;;;8.30;;
1320;SDS011;653;51.480;11.992;2024-02-21T14:45:24;8.70;;;7.87;;
1320;SDS011;653;51.480;11.992;2024-02-21T14:47:52;9.03;;;8.00;;
1320;SDS011;653;51.480;11.992;2024-02-21T14:50:23;10.87;;;7.80;;
1320;SDS011;653;51.480;11.992;2024-02-21T14:52:51;15.17;;;8.90;;
1320;SDS011;653;51.480;11.992;2024-02-21T14:55:18;9.70;;;8.40;;
1320;SDS011;653;51.480;11.992;2024-02-21T14:57:44;9.70;;;7.70;;
1320;SDS011;653;51.480;11.992;2024-02-21T15:00:16;11.43;;;7.80;;
1320;SDS011;653;51.480;11.992;2024-02-21T15:02:43;9.00;;;8.10;;
1320;SDS011;653;51.480;11.992;2024-02-21T15:05:10;10.20;;;7.33;;
1320;SDS011;653;51.480;11.992;2024-02-21T15:07:40;14.00;;;8.90;;
1320;SDS011;653;51.480;11.992;2024-02-21T15:10:07;9.47;;;8.00;;
1320;SDS011;653;51.480;11.992;2024-02-21T15:12:33;9.50;;;7.70;;
1320;SDS011;653;51.480;11.992;2024-02-21T15:15:01;8.60;;;7.80;;
1320;SDS011;653;51.480;11.992;2024-02-21T15:17:29;11.93;;;8.83;;
1320;SDS011;653;51.480;11.992;2024-02-21T15:20:00;9.13;;;8.33;;
1320;SDS011;653;51.480;11.992;2024-02-21T15:22:26;9.50;;;8.50;;